sensor_id;sensor_type;location;lat;lon;timestamp;P1;durP1;ratioP1;P2;durP2;ratioP2
17441;SDS011;8838;50.144;8.176;2024-03-06T00:00:36;14.37;;;7.03;;
17441;SDS011;8838;50.144;8.176;2024-03-06T00:03:03;11.33;;;7.03;;
17441;SDS011;8838;50.144;8.176;2024-03-06T00:05:31;15.17;;;7.50;;
17441;SDS011;8838;50.144;8.176;2024-03-06T00:07:58;19.83;;;7.17;;
17441;SDS011;8838;50.144;8.176;2024-03-06T00:10:25;10.03;;;7.47;;
17441;SDS011;8838;50.144;8.176;2024-03-06T00:12:52;11.23;;;6.87;;
17441;SDS011;8838;50.144;8.176;2024-03-06T00:15:19;10.80;;;6.83;;
17441;SDS011;8838;50.144;8.176;2024-03-06T00:17:46;15.73;;;7.90;;
17441;SDS011;8838;50.144;8.176;2024-03-06T00:20:13;15.33;;;7.90;;
17441;SDS011;8838;50.144;8.176;2024-03-06T00:22:41;14.33;;;7.17;;
17441;SDS011;8838;50.144;8.176;2024-03-06T00:25:08;16.43;;;7.10;;
17441;SDS011;8838;50.144;8.176;2024-03-06T00:27:35;22.47;;;7.30;;
17441;SDS011;8838;50.144;8.176;2024-03-06T00:30:01;14.63;;;6.83;;
17441;SDS011;8838;50.144;8.176;2024-03-06T00:32:28;22.23;;;6.53;;
17441;SDS011;8838;50.144;8.176;2024-03-06T00:34:55;22.10;;;5.80;;
17441;SDS011;8838;50.144;8.176;2024-03-06T00:37:22;11.17;;;5.80;;
17441;SDS011;8838;50.144;8.176;2024-03-06T00:39:50;9.37;;;5.40;;
17441;SDS011;8838;50.144;8.176;2024-03-06T00:42:17;7.83;;;5.13;;
17441;SDS011;8838;50.144;8.176;2024-03-06T00:44:44;9.10;;;5.80;;
17441;SDS011;8838;50.144;8.176;2024-03-06T00:47:11;11.40;;;5.73;;
17441;SDS011;8838;50.144;8.176;2024-03-06T00:49:37;8.73;;;6.10;;
17441;SDS011;8838;50.144;8.176;2024-03-06T00:52:07;11.90;;;5.93;;
17441;SDS011;8838;50.144;8.176;2024-03-06T00:54:34;10.97;;;5.97;;
17441;SDS011;8838;50.144;8.176;2024-03-06T00:57:02;8.63;;;5.97;;
17441;SDS011;8838;50.144;8.176;2024-03-06T00:59:29;8.07;;;5.60;;
17441;SDS011;8838;50.144;8.176;2024-03-06T01:01:56;8.27;;;5.70;;
17441;SDS011;8838;50.144;8.176;2024-03-06T01:04:22;9.63;;;6.00;;
17441;SDS011;8838;50.144;8.176;2024-03-06T01:06:49;30.97;;;6.50;;
17441;SDS011;8838;50.144;8.176;2024-03-06T01:09:16;13.87;;;6.00;;
17441;SDS011;8838;50.144;8.176;2024-03-06T01:11:43;31.57;;;6.63;;
17441;SDS011;8838;50.144;8.176;2024-03-06T01:14:13;20.40;;;6.67;;
17441;SDS011;8838;50.144;8.176;2024-03-06T01:16:41;31.40;;;6.33;;
17441;SDS011;8838;50.144;8.176;2024-03-06T01:19:08;56.50;;;6.87;;
17441;SDS011;8838;50.144;8.176;2024-03-06T01:21:35;38.07;;;6.10;;
17441;SDS011;8838;50.144;8.176;2024-03-06T01:24:01;29.80;;;5.47;;
17441;SDS011;8838;50.144;8.176;2024-03-06T01:26:28;67.63;;;5.50;;
17441;SDS011;8838;50.144;8.176;2024-03-06T01:28:55;51.97;;;5.70;;
17441;SDS011;8838;50.144;8.176;2024-03-06T01:31:24;13.27;;;5.00;;
17441;SDS011;8838;50.144;8.176;2024-03-06T01:33:50;10.27;;;4.67;;
17441;SDS011;8838;50.144;8.176;2024-03-06T01:36:17;7.97;;;4.53;;
17441;SDS011;8838;50.144;8.176;2024-03-06T01:38:44;10.43;;;3.80;;
17441;SDS011;8838;50.144;8.176;2024-03-06T01:41:11;6.57;;;4.60;;
17441;SDS011;8838;50.144;8.176;2024-03-06T01:43:38;5.93;;;4.40;;
17441;SDS011;8838;50.144;8.176;2024-03-06T01:46:05;5.03;;;4.30;;
17441;SDS011;8838;50.144;8.176;2024-03-06T01:48:33;5.60;;;4.50;;
17441;SDS011;8838;50.144;8.176;2024-03-06T01:51:01;4.37;;;3.83;;
17441;SDS011;8838;50.144;8.176;2024-03-06T01:53:30;4.97;;;3.70;;
17441;SDS011;8838;50.144;8.176;2024-03-06T01:55:59;4.90;;;3.90;;
17441;SDS011;8838;50.144;8.176;2024-03-06T01:58:26;5.47;;;4.07;;
17441;SDS011;8838;50.144;8.176;2024-03-06T02:00:54;5.20;;;4.10;;
17441;SDS011;8838;50.144;8.176;2024-03-06T02:03:21;5.83;;;4.30;;
17441;SDS011;8838;50.144;8.176;2024-03-06T02:05:49;17.30;;;5.17;;
17441;SDS011;8838;50.144;8.176;2024-03-06T02:08:17;11.47;;;5.20;;
17441;SDS011;8838;50.144;8.176;2024-03-06T02:10:44;9.27;;;5.20;;
17441;SDS011;8838;50.144;8.176;2024-03-06T02:13:12;15.70;;;4.90;;
17441;SDS011;8838;50.144;8.176;2024-03-06T02:15:39;28.40;;;5.10;;
17441;SDS011;8838;50.144;8.176;2024-03-06T02:18:07;9.77;;;5.30;;
17441;SDS011;8838;50.144;8.176;2024-03-06T02:20:35;25.77;;;5.40;;
17441;SDS011;8838;50.144;8.176;2024-03-06T02:23:05;24.57;;;5.73;;
17441;SDS011;8838;50.144;8.176;2024-03-06T02:25:32;27.70;;;6.07;;
17441;SDS011;8838;50.144;8.176;2024-03-06T02:27:58;29.17;;;5.77;;
17441;SDS011;8838;50.144;8.176;2024-03-06T02:30:25;37.43;;;6.10;;
17441;SDS011;8838;50.144;8.176;2024-03-06T02:32:53;29.07;;;4.77;;
17441;SDS011;8838;50.144;8.176;2024-03-06T02:35:20;17.23;;;5.30;;
17441;SDS011;8838;50.144;8.176;2024-03-06T02:37:49;28.90;;;5.00;;
17441;SDS011;8838;50.144;8.176;2024-03-06T02:40:16;24.50;;;5.00;;
17441;SDS011;8838;50.144;8.176;2024-03-06T02:42:43;35.27;;;5.10;;
17441;SDS011;8838;50.144;8.176;2024-03-06T02:45:10;28.37;;;5.30;;
17441;SDS011;8838;50.144;8.176;2024-03-06T02:47:36;30.33;;;5.10;;
17441;SDS011;8838;50.144;8.176;2024-03-06T02:50:03;16.23;;;4.53;;
17441;SDS011;8838;50.144;8.176;2024-03-06T02:52:32;25.13;;;4.60;;
17441;SDS011;8838;50.144;8.176;2024-03-06T02:55:00;19.23;;;5.03;;
17441;SDS011;8838;50.144;8.176;2024-03-06T02:57:27;21.33;;;5.77;;
17441;SDS011;8838;50.144;8.176;2024-03-06T02:59:55;11.80;;;5.40;;
17441;SDS011;8838;50.144;8.176;2024-03-06T03:02:22;12.83;;;5.60;;
17441;SDS011;8838;50.144;8.176;2024-03-06T03:04:49;16.17;;;5.60;;
17441;SDS011;8838;50.144;8.176;2024-03-06T03:07:17;8.23;;;5.50;;
17441;SDS011;8838;50.144;8.176;2024-03-06T03:09:44;17.70;;;5.77;;
17441;SDS011;8838;50.144;8.176;2024-03-06T03:12:13;7.63;;;5.20;;
17441;SDS011;8838;50.144;8.176;2024-03-06T03:14:40;6.40;;;4.70;;
17441;SDS011;8838;50.144;8.176;2024-03-06T03:17:08;8.10;;;4.73;;
17441;SDS011;8838;50.144;8.176;2024-03-06T03:19:35;6.20;;;4.53;;
17441;SDS011;8838;50.144;8.176;2024-03-06T03:22:04;7.40;;;4.90;;
17441;SDS011;8838;50.144;8.176;2024-03-06T03:24:33;6.80;;;4.13;;
17441;SDS011;8838;50.144;8.176;2024-03-06T03:27:00;5.27;;;3.47;;
17441;SDS011;8838;50.144;8.176;2024-03-06T03:29:28;4.53;;;3.73;;
17441;SDS011;8838;50.144;8.176;2024-03-06T03:31:55;5.57;;;4.10;;
17441;SDS011;8838;50.144;8.176;2024-03-06T03:34:22;5.10;;;3.83;;
17441;SDS011;8838;50.144;8.176;2024-03-06T03:36:49;4.77;;;3.40;;
17441;SDS011;8838;50.144;8.176;2024-03-06T03:39:16;4.23;;;3.40;;
17441;SDS011;8838;50.144;8.176;2024-03-06T03:41:43;6.10;;;3.37;;
17441;SDS011;8838;50.144;8.176;2024-03-06T03:44:11;5.50;;;3.50;;
17441;SDS011;8838;50.144;8.176;2024-03-06T03:46:39;4.20;;;3.10;;
17441;SDS011;8838;50.144;8.176;2024-03-06T03:49:06;5.43;;;3.37;;
17441;SDS011;8838;50.144;8.176;2024-03-06T03:51:33;3.47;;;2.67;;
17441;SDS011;8838;50.144;8.176;2024-03-06T03:54:00;5.43;;;3.30;;
17441;SDS011;8838;50.144;8.176;2024-03-06T03:56:27;4.63;;;2.80;;
17441;SDS011;8838;50.144;8.176;2024-03-06T03:58:55;3.97;;;3.00;;
17441;SDS011;8838;50.144;8.176;2024-03-06T04:01:22;5.07;;;3.00;;
17441;SDS011;8838;50.144;8.176;2024-03-06T04:03:51;3.77;;;2.87;;
17441;SDS011;8838;50.144;8.176;2024-03-06T04:06:18;5.10;;;3.20;;
17441;SDS011;8838;50.144;8.176;2024-03-06T04:08:44;5.17;;;3.30;;
17441;SDS011;8838;50.144;8.176;2024-03-06T04:11:11;4.97;;;2.97;;
17441;SDS011;8838;50.144;8.176;2024-03-06T04:13:38;5.60;;;3.70;;
17441;SDS011;8838;50.144;8.176;2024-03-06T04:16:05;7.57;;;4.00;;
17441;SDS011;8838;50.144;8.176;2024-03-06T04:18:33;6.80;;;4.43;;
17441;SDS011;8838;50.144;8.176;2024-03-06T04:21:03;5.90;;;4.60;;
17441;SDS011;8838;50.144;8.176;2024-03-06T04:23:30;7.27;;;4.50;;
17441;SDS011;8838;50.144;8.176;2024-03-06T04:25:57;6.50;;;4.70;;
17441;SDS011;8838;50.144;8.176;2024-03-06T04:28:24;7.10;;;3.97;;
17441;SDS011;8838;50.144;8.176;2024-03-06T04:30:51;5.37;;;4.47;;
17441;SDS011;8838;50.144;8.176;2024-03-06T04:33:18;7.27;;;5.13;;
17441;SDS011;8838;50.144;8.176;2024-03-06T04:35:45;6.80;;;4.70;;
17441;SDS011;8838;50.144;8.176;2024-03-06T04:38:13;6.97;;;4.70;;
17441;SDS011;8838;50.144;8.176;2024-03-06T04:40:40;7.30;;;4.40;;
17441;SDS011;8838;50.144;8.176;2024-03-06T04:43:07;5.97;;;4.40;;
17441;SDS011;8838;50.144;8.176;2024-03-06T04:45:34;5.37;;;4.20;;
17441;SDS011;8838;50.144;8.176;2024-03-06T04:48:00;5.87;;;4.23;;
17441;SDS011;8838;50.144;8.176;2024-03-06T04:50:27;5.70;;;4.40;;
17441;SDS011;8838;50.144;8.176;2024-03-06T04:52:54;6.20;;;4.43;;
17441;SDS011;8838;50.144;8.176;2024-03-06T04:55:23;6.47;;;4.03;;
17441;SDS011;8838;50.144;8.176;2024-03-06T04:57:50;6.77;;;4.10;;
17441;SDS011;8838;50.144;8.176;2024-03-06T05:00:17;7.97;;;3.70;;
17441;SDS011;8838;50.144;8.176;2024-03-06T05:02:44;8.70;;;3.83;;
17441;SDS011;8838;50.144;8.176;2024-03-06T05:05:11;5.20;;;3.43;;
17441;SDS011;8838;50.144;8.176;2024-03-06T05:07:38;4.97;;;3.27;;
17441;SDS011;8838;50.144;8.176;2024-03-06T05:10:05;5.13;;;3.10;;
17441;SDS011;8838;50.144;8.176;2024-03-06T05:12:39;4.53;;;3.33;;
17441;SDS011;8838;50.144;8.176;2024-03-06T05:15:06;6.53;;;3.50;;
17441;SDS011;8838;50.144;8.176;2024-03-06T05:17:34;4.77;;;3.07;;
17441;SDS011;8838;50.144;8.176;2024-03-06T05:20:01;4.40;;;3.40;;
17441;SDS011;8838;50.144;8.176;2024-03-06T05:22:29;4.17;;;3.10;;
17441;SDS011;8838;50.144;8.176;2024-03-06T05:24:56;5.17;;;3.70;;
17441;SDS011;8838;50.144;8.176;2024-03-06T05:27:23;5.47;;;3.50;;
17441;SDS011;8838;50.144;8.176;2024-03-06T05:29:52;4.93;;;3.63;;
17441;SDS011;8838;50.144;8.176;2024-03-06T05:32:19;5.97;;;3.47;;
17441;SDS011;8838;50.144;8.176;2024-03-06T05:34:46;6.13;;;3.17;;
17441;SDS011;8838;50.144;8.176;2024-03-06T05:37:13;7.20;;;3.40;;
17441;SDS011;8838;50.144;8.176;2024-03-06T05:39:40;5.30;;;2.90;;
17441;SDS011;8838;50.144;8.176;2024-03-06T05:42:07;4.50;;;3.13;;
17441;SDS011;8838;50.144;8.176;2024-03-06T05:44:34;4.13;;;2.70;;
17441;SDS011;8838;50.144;8.176;2024-03-06T05:47:02;3.43;;;2.80;;
17441;SDS011;8838;50.144;8.176;2024-03-06T05:49:29;4.87;;;3.23;;
17441;SDS011;8838;50.144;8.176;2024-03-06T05:51:57;4.70;;;3.30;;
17441;SDS011;8838;50.144;8.176;2024-03-06T05:54:25;5.77;;;3.80;;
17441;SDS011;8838;50.144;8.176;2024-03-06T05:56:52;6.27;;;4.00;;
17441;SDS011;8838;50.144;8.176;2024-03-06T05:59:19;3.57;;;2.90;;
17441;SDS011;8838;50.144;8.176;2024-03-06T06:01:46;4.13;;;2.90;;
17441;SDS011;8838;50.144;8.176;2024-03-06T06:04:15;3.50;;;2.33;;
17441;SDS011;8838;50.144;8.176;2024-03-06T06:06:41;3.90;;;2.97;;
17441;SDS011;8838;50.144;8.176;2024-03-06T06:09:08;3.60;;;2.70;;
17441;SDS011;8838;50.144;8.176;2024-03-06T06:11:40;4.57;;;2.90;;
17441;SDS011;8838;50.144;8.176;2024-03-06T06:14:07;5.17;;;3.10;;
17441;SDS011;8838;50.144;8.176;2024-03-06T06:16:35;4.93;;;3.00;;
17441;SDS011;8838;50.144;8.176;2024-03-06T06:19:02;4.80;;;3.30;;
17441;SDS011;8838;50.144;8.176;2024-03-06T06:21:32;7.00;;;3.70;;
17441;SDS011;8838;50.144;8.176;2024-03-06T06:24:00;6.03;;;3.03;;
17441;SDS011;8838;50.144;8.176;2024-03-06T06:26:28;4.83;;;3.37;;
17441;SDS011;8838;50.144;8.176;2024-03-06T06:28:56;4.63;;;3.20;;
17441;SDS011;8838;50.144;8.176;2024-03-06T06:31:23;3.83;;;3.07;;
17441;SDS011;8838;50.144;8.176;2024-03-06T06:33:50;4.53;;;3.10;;
17441;SDS011;8838;50.144;8.176;2024-03-06T06:36:17;6.67;;;3.53;;
17441;SDS011;8838;50.144;8.176;2024-03-06T06:38:45;7.33;;;4.50;;
17441;SDS011;8838;50.144;8.176;2024-03-06T06:41:13;5.73;;;3.90;;
17441;SDS011;8838;50.144;8.176;2024-03-06T06:43:40;5.90;;;3.93;;
17441;SDS011;8838;50.144;8.176;2024-03-06T06:46:07;5.77;;;3.43;;
17441;SDS011;8838;50.144;8.176;2024-03-06T06:48:34;5.47;;;3.43;;
17441;SDS011;8838;50.144;8.176;2024-03-06T06:51:01;3.80;;;2.90;;
17441;SDS011;8838;50.144;8.176;2024-03-06T06:53:28;4.93;;;3.03;;
17441;SDS011;8838;50.144;8.176;2024-03-06T06:55:56;5.33;;;2.90;;
17441;SDS011;8838;50.144;8.176;2024-03-06T06:58:23;5.83;;;2.90;;
17441;SDS011;8838;50.144;8.176;2024-03-06T07:00:52;6.33;;;3.40;;
17441;SDS011;8838;50.144;8.176;2024-03-06T07:03:18;4.53;;;3.30;;
17441;SDS011;8838;50.144;8.176;2024-03-06T07:05:46;4.63;;;3.30;;
17441;SDS011;8838;50.144;8.176;2024-03-06T07:08:13;4.70;;;3.13;;
17441;SDS011;8838;50.144;8.176;2024-03-06T07:10:40;4.67;;;3.50;;
17441;SDS011;8838;50.144;8.176;2024-03-06T07:13:08;6.50;;;3.97;;
17441;SDS011;8838;50.144;8.176;2024-03-06T07:15:35;6.43;;;3.90;;
17441;SDS011;8838;50.144;8.176;2024-03-06T07:18:02;5.30;;;3.20;;
17441;SDS011;8838;50.144;8.176;2024-03-06T07:20:29;6.23;;;3.70;;
17441;SDS011;8838;50.144;8.176;2024-03-06T07:22:56;7.87;;;3.30;;
17441;SDS011;8838;50.144;8.176;2024-03-06T07:25:23;5.10;;;3.53;;
17441;SDS011;8838;50.144;8.176;2024-03-06T07:27:50;4.87;;;3.73;;
17441;SDS011;8838;50.144;8.176;2024-03-06T07:30:19;5.70;;;3.40;;
17441;SDS011;8838;50.144;8.176;2024-03-06T07:32:47;5.53;;;3.50;;
17441;SDS011;8838;50.144;8.176;2024-03-06T07:35:14;4.53;;;3.23;;
17441;SDS011;8838;50.144;8.176;2024-03-06T07:37:40;6.53;;;3.40;;
17441;SDS011;8838;50.144;8.176;2024-03-06T07:40:09;6.10;;;4.07;;
17441;SDS011;8838;50.144;8.176;2024-03-06T07:42:36;7.63;;;4.13;;
17441;SDS011;8838;50.144;8.176;2024-03-06T07:45:04;4.77;;;4.07;;
17441;SDS011;8838;50.144;8.176;2024-03-06T07:47:33;6.23;;;4.70;;
17441;SDS011;8838;50.144;8.176;2024-03-06T07:50:00;7.10;;;5.10;;
17441;SDS011;8838;50.144;8.176;2024-03-06T07:52:27;15.63;;;8.60;;
17441;SDS011;8838;50.144;8.176;2024-03-06T07:54:54;7.63;;;5.37;;
17441;SDS011;8838;50.144;8.176;2024-03-06T07:57:21;7.77;;;5.50;;
17441;SDS011;8838;50.144;8.176;2024-03-06T07:59:48;6.63;;;5.03;;
17441;SDS011;8838;50.144;8.176;2024-03-06T08:02:19;9.33;;;5.30;;
17441;SDS011;8838;50.144;8.176;2024-03-06T08:04:49;8.60;;;6.00;;
17441;SDS011;8838;50.144;8.176;2024-03-06T08:07:16;8.80;;;6.20;;
17441;SDS011;8838;50.144;8.176;2024-03-06T08:09:43;11.90;;;6.23;;
17441;SDS011;8838;50.144;8.176;2024-03-06T08:12:14;18.27;;;7.20;;
17441;SDS011;8838;50.144;8.176;2024-03-06T08:14:41;13.27;;;7.63;;
17441;SDS011;8838;50.144;8.176;2024-03-06T08:17:08;18.13;;;7.40;;
17441;SDS011;8838;50.144;8.176;2024-03-06T08:19:35;15.10;;;7.17;;
17441;SDS011;8838;50.144;8.176;2024-03-06T08:22:03;27.03;;;9.90;;
17441;SDS011;8838;50.144;8.176;2024-03-06T08:24:30;31.03;;;11.03;;
17441;SDS011;8838;50.144;8.176;2024-03-06T08:26:57;21.53;;;10.37;;
17441;SDS011;8838;50.144;8.176;2024-03-06T08:29:24;34.40;;;9.90;;
17441;SDS011;8838;50.144;8.176;2024-03-06T08:31:52;25.33;;;9.33;;
17441;SDS011;8838;50.144;8.176;2024-03-06T08:34:23;34.73;;;10.10;;
17441;SDS011;8838;50.144;8.176;2024-03-06T08:36:49;26.47;;;9.57;;
17441;SDS011;8838;50.144;8.176;2024-03-06T08:39:18;36.07;;;11.07;;
17441;SDS011;8838;50.144;8.176;2024-03-06T08:41:45;31.13;;;10.70;;
17441;SDS011;8838;50.144;8.176;2024-03-06T08:44:11;32.73;;;11.30;;
17441;SDS011;8838;50.144;8.176;2024-03-06T08:46:39;33.10;;;10.87;;
17441;SDS011;8838;50.144;8.176;2024-03-06T08:49:06;38.60;;;12.10;;
17441;SDS011;8838;50.144;8.176;2024-03-06T08:51:33;49.27;;;13.37;;
17441;SDS011;8838;50.144;8.176;2024-03-06T08:54:00;62.03;;;13.97;;
17441;SDS011;8838;50.144;8.176;2024-03-06T08:56:29;91.63;;;13.87;;
17441;SDS011;8838;50.144;8.176;2024-03-06T08:58:55;36.57;;;12.43;;
17441;SDS011;8838;50.144;8.176;2024-03-06T09:01:22;63.70;;;13.63;;
17441;SDS011;8838;50.144;8.176;2024-03-06T09:03:50;50.97;;;13.13;;
17441;SDS011;8838;50.144;8.176;2024-03-06T09:06:17;31.20;;;11.53;;
17441;SDS011;8838;50.144;8.176;2024-03-06T09:08:44;52.33;;;12.60;;
17441;SDS011;8838;50.144;8.176;2024-03-06T09:11:12;26.00;;;12.40;;
17441;SDS011;8838;50.144;8.176;2024-03-06T09:13:40;36.50;;;12.60;;
17441;SDS011;8838;50.144;8.176;2024-03-06T09:16:07;35.67;;;12.93;;
17441;SDS011;8838;50.144;8.176;2024-03-06T09:18:34;30.00;;;12.97;;
17441;SDS011;8838;50.144;8.176;2024-03-06T09:21:02;34.17;;;13.10;;
17441;SDS011;8838;50.144;8.176;2024-03-06T09:23:28;30.07;;;12.53;;
17441;SDS011;8838;50.144;8.176;2024-03-06T09:25:55;26.80;;;13.53;;
17441;SDS011;8838;50.144;8.176;2024-03-06T09:28:22;21.60;;;13.07;;
17441;SDS011;8838;50.144;8.176;2024-03-06T09:30:51;23.07;;;13.27;;
17441;SDS011;8838;50.144;8.176;2024-03-06T09:33:17;23.87;;;13.70;;
17441;SDS011;8838;50.144;8.176;2024-03-06T09:35:44;23.93;;;13.63;;
17441;SDS011;8838;50.144;8.176;2024-03-06T09:38:11;28.90;;;13.80;;
17441;SDS011;8838;50.144;8.176;2024-03-06T09:40:39;23.93;;;14.17;;
17441;SDS011;8838;50.144;8.176;2024-03-06T09:43:07;23.80;;;13.83;;
17441;SDS011;8838;50.144;8.176;2024-03-06T09:45:34;22.20;;;13.73;;
17441;SDS011;8838;50.144;8.176;2024-03-06T09:48:04;22.40;;;13.73;;
17441;SDS011;8838;50.144;8.176;2024-03-06T09:50:31;19.23;;;12.53;;
17441;SDS011;8838;50.144;8.176;2024-03-06T09:53:03;20.47;;;13.37;;
17441;SDS011;8838;50.144;8.176;2024-03-06T09:55:32;20.03;;;12.57;;
17441;SDS011;8838;50.144;8.176;2024-03-06T09:58:00;20.43;;;12.27;;
17441;SDS011;8838;50.144;8.176;2024-03-06T10:00:30;19.65;;;13.40;;
17441;SDS011;8838;50.144;8.176;2024-03-06T10:02:58;18.70;;;12.70;;
17441;SDS011;8838;50.144;8.176;2024-03-06T10:05:27;20.73;;;13.43;;
17441;SDS011;8838;50.144;8.176;2024-03-06T10:07:57;20.80;;;13.40;;
17441;SDS011;8838;50.144;8.176;2024-03-06T10:10:24;20.73;;;13.60;;
17441;SDS011;8838;50.144;8.176;2024-03-06T10:12:52;17.48;;;11.38;;
17441;SDS011;8838;50.144;8.176;2024-03-06T10:15:19;20.20;;;12.68;;
17441;SDS011;8838;50.144;8.176;2024-03-06T10:17:46;17.38;;;11.38;;
17441;SDS011;8838;50.144;8.176;2024-03-06T10:20:18;16.30;;;11.27;;
17441;SDS011;8838;50.144;8.176;2024-03-06T10:22:48;14.95;;;10.43;;
17441;SDS011;8838;50.144;8.176;2024-03-06T10:25:18;17.05;;;11.13;;
17441;SDS011;8838;50.144;8.176;2024-03-06T10:27:48;15.40;;;11.32;;
17441;SDS011;8838;50.144;8.176;2024-03-06T10:30:33;13.88;;;10.80;;
17441;SDS011;8838;50.144;8.176;2024-03-06T10:33:02;15.35;;;10.32;;
17441;SDS011;8838;50.144;8.176;2024-03-06T10:35:30;14.25;;;10.57;;
17441;SDS011;8838;50.144;8.176;2024-03-06T10:37:59;16.27;;;11.13;;
17441;SDS011;8838;50.144;8.176;2024-03-06T10:40:27;14.70;;;11.07;;
17441;SDS011;8838;50.144;8.176;2024-03-06T10:42:57;15.50;;;11.40;;
17441;SDS011;8838;50.144;8.176;2024-03-06T10:45:38;16.00;;;11.30;;
17441;SDS011;8838;50.144;8.176;2024-03-06T10:48:07;15.27;;;10.95;;
17441;SDS011;8838;50.144;8.176;2024-03-06T10:50:36;17.42;;;10.82;;
17441;SDS011;8838;50.144;8.176;2024-03-06T10:53:09;16.83;;;10.63;;
17441;SDS011;8838;50.144;8.176;2024-03-06T10:55:36;14.88;;;10.95;;
17441;SDS011;8838;50.144;8.176;2024-03-06T10:58:03;13.85;;;10.32;;
17441;SDS011;8838;50.144;8.176;2024-03-06T11:00:33;15.57;;;10.73;;
17441;SDS011;8838;50.144;8.176;2024-03-06T11:03:02;14.75;;;10.20;;
17441;SDS011;8838;50.144;8.176;2024-03-06T11:05:33;15.43;;;10.73;;
17441;SDS011;8838;50.144;8.176;2024-03-06T11:08:01;13.77;;;9.68;;
17441;SDS011;8838;50.144;8.176;2024-03-06T11:10:31;14.30;;;10.02;;
17441;SDS011;8838;50.144;8.176;2024-03-06T11:12:58;16.38;;;9.80;;
17441;SDS011;8838;50.144;8.176;2024-03-06T11:15:26;14.50;;;9.70;;
17441;SDS011;8838;50.144;8.176;2024-03-06T11:17:53;12.85;;;9.23;;
17441;SDS011;8838;50.144;8.176;2024-03-06T11:20:20;13.98;;;8.95;;
17441;SDS011;8838;50.144;8.176;2024-03-06T11:23:07;13.65;;;8.75;;
17441;SDS011;8838;50.144;8.176;2024-03-06T11:28:29;12.13;;;8.00;;
17441;SDS011;8838;50.144;8.176;2024-03-06T11:30:56;10.80;;;7.05;;
17441;SDS011;8838;50.144;8.176;2024-03-06T11:33:28;11.65;;;7.80;;
17441;SDS011;8838;50.144;8.176;2024-03-06T11:36:14;9.65;;;6.82;;
17441;SDS011;8838;50.144;8.176;2024-03-06T11:38:42;10.85;;;7.22;;
17441;SDS011;8838;50.144;8.176;2024-03-06T11:41:15;11.65;;;7.30;;
17441;SDS011;8838;50.144;8.176;2024-03-06T11:43:42;11.90;;;7.50;;
17441;SDS011;8838;50.144;8.176;2024-03-06T11:46:10;10.60;;;5.60;;
17441;SDS011;8838;50.144;8.176;2024-03-06T11:48:37;8.48;;;6.00;;
17441;SDS011;8838;50.144;8.176;2024-03-06T11:51:04;9.23;;;5.28;;
17441;SDS011;8838;50.144;8.176;2024-03-06T11:53:32;7.57;;;5.00;;
17441;SDS011;8838;50.144;8.176;2024-03-06T11:56:00;9.73;;;5.82;;
17441;SDS011;8838;50.144;8.176;2024-03-06T11:58:28;8.95;;;5.72;;
17441;SDS011;8838;50.144;8.176;2024-03-06T12:00:55;8.10;;;5.88;;
17441;SDS011;8838;50.144;8.176;2024-03-06T12:03:22;8.40;;;4.85;;
17441;SDS011;8838;50.144;8.176;2024-03-06T12:05:50;8.98;;;5.68;;
17441;SDS011;8838;50.144;8.176;2024-03-06T12:08:17;6.45;;;4.90;;
17441;SDS011;8838;50.144;8.176;2024-03-06T12:10:45;10.50;;;5.90;;
17441;SDS011;8838;50.144;8.176;2024-03-06T12:13:13;10.80;;;5.15;;
17441;SDS011;8838;50.144;8.176;2024-03-06T12:15:43;9.68;;;5.70;;
17441;SDS011;8838;50.144;8.176;2024-03-06T12:18:10;9.63;;;5.72;;
17441;SDS011;8838;50.144;8.176;2024-03-06T12:20:40;9.55;;;6.25;;
17441;SDS011;8838;50.144;8.176;2024-03-06T12:23:18;10.85;;;7.10;;
17441;SDS011;8838;50.144;8.176;2024-03-06T12:25:51;10.52;;;5.55;;
17441;SDS011;8838;50.144;8.176;2024-03-06T12:28:29;6.93;;;4.95;;
17441;SDS011;8838;50.144;8.176;2024-03-06T12:30:57;11.10;;;5.45;;
17441;SDS011;8838;50.144;8.176;2024-03-06T12:33:27;9.23;;;5.80;;
17441;SDS011;8838;50.144;8.176;2024-03-06T12:36:01;11.27;;;6.32;;
17441;SDS011;8838;50.144;8.176;2024-03-06T12:38:29;11.10;;;7.15;;
17441;SDS011;8838;50.144;8.176;2024-03-06T12:40:56;9.82;;;6.70;;
17441;SDS011;8838;50.144;8.176;2024-03-06T12:43:23;12.55;;;7.30;;
17441;SDS011;8838;50.144;8.176;2024-03-06T12:45:50;10.75;;;7.70;;
17441;SDS011;8838;50.144;8.176;2024-03-06T12:48:21;13.30;;;7.63;;
17441;SDS011;8838;50.144;8.176;2024-03-06T12:50:48;11.40;;;6.95;;
17441;SDS011;8838;50.144;8.176;2024-03-06T12:53:16;12.10;;;7.22;;
17441;SDS011;8838;50.144;8.176;2024-03-06T12:55:44;10.35;;;7.50;;
17441;SDS011;8838;50.144;8.176;2024-03-06T12:58:11;11.05;;;7.35;;
17441;SDS011;8838;50.144;8.176;2024-03-06T13:00:38;10.55;;;6.80;;
17441;SDS011;8838;50.144;8.176;2024-03-06T13:03:05;10.68;;;7.07;;
17441;SDS011;8838;50.144;8.176;2024-03-06T13:05:34;10.82;;;6.80;;
17441;SDS011;8838;50.144;8.176;2024-03-06T13:08:01;13.57;;;9.70;;
17441;SDS011;8838;50.144;8.176;2024-03-06T13:10:28;10.57;;;7.78;;
17441;SDS011;8838;50.144;8.176;2024-03-06T13:12:55;12.35;;;8.15;;
17441;SDS011;8838;50.144;8.176;2024-03-06T13:15:22;13.00;;;7.85;;
17441;SDS011;8838;50.144;8.176;2024-03-06T13:17:49;10.77;;;6.60;;
17441;SDS011;8838;50.144;8.176;2024-03-06T13:20:16;12.40;;;6.97;;
17441;SDS011;8838;50.144;8.176;2024-03-06T13:22:44;12.23;;;6.55;;
17441;SDS011;8838;50.144;8.176;2024-03-06T13:25:11;10.68;;;6.93;;
17441;SDS011;8838;50.144;8.176;2024-03-06T13:27:38;12.15;;;7.95;;
17441;SDS011;8838;50.144;8.176;2024-03-06T13:30:05;14.15;;;7.68;;
17441;SDS011;8838;50.144;8.176;2024-03-06T13:32:33;11.95;;;7.35;;
17441;SDS011;8838;50.144;8.176;2024-03-06T13:35:00;12.55;;;7.20;;
17441;SDS011;8838;50.144;8.176;2024-03-06T13:37:27;13.18;;;7.97;;
17441;SDS011;8838;50.144;8.176;2024-03-06T13:39:55;12.50;;;8.23;;
17441;SDS011;8838;50.144;8.176;2024-03-06T13:42:25;14.23;;;9.10;;
17441;SDS011;8838;50.144;8.176;2024-03-06T13:44:52;15.75;;;9.60;;
17441;SDS011;8838;50.144;8.176;2024-03-06T13:47:20;16.23;;;9.48;;
17441;SDS011;8838;50.144;8.176;2024-03-06T13:49:48;15.98;;;9.32;;
17441;SDS011;8838;50.144;8.176;2024-03-06T13:52:14;16.70;;;10.43;;
17441;SDS011;8838;50.144;8.176;2024-03-06T13:54:45;20.05;;;11.10;;
17441;SDS011;8838;50.144;8.176;2024-03-06T13:57:14;16.25;;;10.93;;
17441;SDS011;8838;50.144;8.176;2024-03-06T13:59:41;17.02;;;10.27;;
17441;SDS011;8838;50.144;8.176;2024-03-06T14:02:08;16.10;;;10.07;;
17441;SDS011;8838;50.144;8.176;2024-03-06T14:04:35;20.45;;;11.40;;
17441;SDS011;8838;50.144;8.176;2024-03-06T14:07:02;18.60;;;11.05;;
17441;SDS011;8838;50.144;8.176;2024-03-06T14:09:29;19.13;;;10.95;;
17441;SDS011;8838;50.144;8.176;2024-03-06T14:11:57;16.98;;;10.10;;
17441;SDS011;8838;50.144;8.176;2024-03-06T14:14:25;18.00;;;10.95;;
17441;SDS011;8838;50.144;8.176;2024-03-06T14:16:52;20.52;;;10.85;;
17441;SDS011;8838;50.144;8.176;2024-03-06T14:19:19;18.13;;;10.82;;
17441;SDS011;8838;50.144;8.176;2024-03-06T14:21:46;15.38;;;10.00;;
17441;SDS011;8838;50.144;8.176;2024-03-06T14:24:13;15.30;;;9.10;;
17441;SDS011;8838;50.144;8.176;2024-03-06T14:26:40;14.82;;;9.32;;
17441;SDS011;8838;50.144;8.176;2024-03-06T14:29:07;15.45;;;9.55;;
17441;SDS011;8838;50.144;8.176;2024-03-06T14:31:36;12.98;;;8.55;;
17441;SDS011;8838;50.144;8.176;2024-03-06T14:34:03;15.10;;;8.75;;
17441;SDS011;8838;50.144;8.176;2024-03-06T14:36:30;14.73;;;9.23;;
17441;SDS011;8838;50.144;8.176;2024-03-06T14:38:57;13.02;;;8.70;;
17441;SDS011;8838;50.144;8.176;2024-03-06T14:41:24;15.73;;;8.63;;
17441;SDS011;8838;50.144;8.176;2024-03-06T14:43:51;15.30;;;8.43;;
17441;SDS011;8838;50.144;8.176;2024-03-06T14:46:21;13.93;;;8.60;;
17441;SDS011;8838;50.144;8.176;2024-03-06T14:48:49;13.63;;;8.77;;
17441;SDS011;8838;50.144;8.176;2024-03-06T14:51:16;13.90;;;9.10;;
17441;SDS011;8838;50.144;8.176;2024-03-06T14:53:42;12.93;;;8.32;;
17441;SDS011;8838;50.144;8.176;2024-03-06T14:56:09;15.57;;;8.63;;